createdAt,value
2018-05-09T00:00:25.894Z,99701.36
2018-05-09T00:01:31.416Z,99699.61
2018-05-09T00:02:37.167Z,99698.22
2018-05-09T00:03:42.936Z,99693.63
2018-05-09T00:04:48.689Z,99700.68
2018-05-09T00:05:54.444Z,99697.38
2018-05-09T00:07:00.187Z,99698.94
2018-05-09T00:08:05.940Z,99698.94
2018-05-09T00:09:12.477Z,99697.13
2018-05-09T00:10:18.306Z,99694.73
2018-05-09T00:11:24.081Z,99697.38
2018-05-09T00:12:29.797Z,99691.88
2018-05-09T00:13:35.547Z,99693.89
2018-05-09T00:14:41.325Z,99694.38
2018-05-09T00:15:47.838Z,99697.52
2018-05-09T00:16:53.581Z,99699.61
2018-05-09T00:17:59.333Z,99697.51
2018-05-09T00:19:05.091Z,99697.67
2018-05-09T00:20:11.627Z,99701.00
2018-05-09T00:21:17.372Z,99697.18
2018-05-09T00:22:23.123Z,99695.63
2018-05-09T00:23:28.869Z,99695.63
2018-05-09T00:24:35.378Z,99692.13
2018-05-09T00:25:41.155Z,99692.68
2018-05-09T00:26:46.906Z,99689.13
2018-05-09T00:27:52.650Z,99689.06
2018-05-09T00:28:59.814Z,99682.50
2018-05-09T00:30:04.895Z,99687.19
2018-05-09T00:31:10.678Z,99682.56
2018-05-09T00:32:16.427Z,99683.27
2018-05-09T00:33:22.175Z,99689.12
2018-05-09T00:34:28.697Z,99686.20
2018-05-09T00:35:34.465Z,99683.55
2018-05-09T00:36:41.001Z,99682.36
2018-05-09T00:37:46.747Z,99684.72
2018-05-09T00:38:52.501Z,99684.84
2018-05-09T00:39:58.252Z,99684.84
2018-05-09T00:41:03.994Z,99678.77
2018-05-09T00:42:10.524Z,99676.24
2018-05-09T00:43:16.271Z,99674.02
2018-05-09T00:44:22.019Z,99675.33
2018-05-09T00:45:27.535Z,99671.29
2018-05-09T00:46:33.287Z,99675.05
2018-05-09T00:47:39.065Z,99670.16
2018-05-09T00:48:44.813Z,99672.81
2018-05-09T00:49:51.328Z,99675.27
2018-05-09T00:50:57.070Z,99673.95
2018-05-09T00:52:02.819Z,99682.61
2018-05-09T00:53:08.592Z,99673.66
2018-05-09T00:54:33.830Z,99675.05
2018-05-09T00:55:39.587Z,99675.19
2018-05-09T00:56:45.602Z,99673.44
2018-05-09T00:57:52.124Z,99679.91
2018-05-09T00:58:57.891Z,99675.31
2018-05-09T01:00:03.956Z,99677.53
2018-05-09T01:01:09.726Z,99675.78
2018-05-09T01:02:15.470Z,99673.84
2018-05-09T01:03:21.225Z,99676.00
2018-05-09T01:04:27.024Z,99670.66
2018-05-09T01:05:32.203Z,99675.56
2018-05-09T01:06:39.464Z,99672.49
2018-05-09T01:07:45.212Z,99668.00
2018-05-09T01:08:50.993Z,99675.20
2018-05-09T01:09:56.808Z,99675.27
2018-05-09T01:11:02.332Z,99675.45
2018-05-09T01:12:08.090Z,99681.87
2018-05-09T01:13:13.838Z,99681.87
2018-05-09T01:14:19.605Z,99679.23
2018-05-09T01:15:26.143Z,99681.45
2018-05-09T01:16:31.895Z,99675.86
2018-05-09T01:17:38.414Z,99679.09
2018-05-09T01:18:44.160Z,99676.92
2018-05-09T01:19:49.725Z,99679.70
2018-05-09T01:20:55.489Z,99678.44
2018-05-09T01:22:01.252Z,99674.94
2018-05-09T01:23:07.003Z,99679.34
2018-05-09T01:24:12.524Z,99673.54
2018-05-09T01:25:18.277Z,99678.42
2018-05-09T01:26:24.064Z,99678.60
2018-05-09T01:27:30.577Z,99671.23
2018-05-09T01:28:36.311Z,99678.05
2018-05-09T01:29:42.068Z,99677.69
2018-05-09T01:30:47.608Z,99680.13
2018-05-09T01:31:53.379Z,99674.11
2018-05-09T01:32:59.139Z,99679.08
2018-05-09T01:34:05.653Z,99674.27
2018-05-09T01:35:11.398Z,99675.72
2018-05-09T01:36:17.156Z,99674.17
2018-05-09T01:37:22.932Z,99667.85
2018-05-09T01:38:29.230Z,99673.29
2018-05-09T01:39:35.011Z,99675.03
2018-05-09T01:40:40.761Z,99668.35
2018-05-09T01:41:47.275Z,99672.63
2018-05-09T01:42:53.027Z,99673.82
2018-05-09T01:43:58.763Z,99673.25
2018-05-09T01:45:04.503Z,99673.19
2018-05-09T01:46:10.008Z,99674.45
2018-05-09T01:47:15.749Z,99677.58
2018-05-09T01:48:21.612Z,99670.95
2018-05-09T01:49:27.363Z,99669.98
2018-05-09T01:50:33.149Z,99673.06
2018-05-09T01:51:39.660Z,99667.83
2018-05-09T01:52:45.412Z,99670.59
2018-05-09T01:53:51.177Z,99667.11
2018-05-09T01:54:57.753Z,99661.39
2018-05-09T01:56:03.670Z,99666.69
2018-05-09T01:57:09.412Z,99666.78
2018-05-09T01:58:15.222Z,99664.13
2018-05-09T01:59:20.983Z,99659.25
2018-05-09T02:00:26.827Z,99657.94
2018-05-09T02:01:32.594Z,99666.00
2018-05-09T02:02:39.101Z,99661.61
2018-05-09T02:03:44.850Z,99668.65
2018-05-09T02:04:50.609Z,99662.39
2018-05-09T02:05:56.421Z,99669.55
2018-05-09T02:07:02.186Z,99664.20
2018-05-09T02:08:07.951Z,99665.52
2018-05-09T02:09:13.705Z,99660.22
2018-05-09T02:10:20.015Z,99664.25
2018-05-09T02:11:25.760Z,99662.45
2018-05-09T02:12:32.760Z,99656.73
2018-05-09T02:13:40.252Z,99656.38
2018-05-09T02:14:45.496Z,99653.24
2018-05-09T02:15:52.035Z,99654.15
2018-05-09T02:16:57.560Z,99648.55
2018-05-09T02:18:03.302Z,99647.39
2018-05-09T02:19:09.055Z,99653.16
2018-05-09T02:20:14.817Z,99654.13
2018-05-09T02:21:21.350Z,99654.19
2018-05-09T02:22:27.089Z,99655.52
2018-05-09T02:23:32.835Z,99659.55
2018-05-09T02:24:38.813Z,99659.55
2018-05-09T02:25:45.346Z,99653.09
2018-05-09T02:26:52.623Z,99645.75
2018-05-09T02:27:59.143Z,99649.36
2018-05-09T02:29:04.675Z,99645.03
2018-05-09T02:30:10.418Z,99646.52
2018-05-09T02:31:16.294Z,99644.89
2018-05-09T02:32:22.149Z,99642.37
2018-05-09T02:33:27.894Z,99640.30
2018-05-09T02:34:33.631Z,99647.40
2018-05-09T02:35:39.368Z,99639.16
2018-05-09T02:36:45.125Z,99643.61
2018-05-09T02:37:51.410Z,99636.99
2018-05-09T02:38:57.165Z,99638.38
2018-05-09T02:40:02.911Z,99640.19
2018-05-09T02:41:08.663Z,99638.47
2018-05-09T02:42:14.169Z,99640.61
2018-05-09T02:43:19.942Z,99639.80
2018-05-09T02:44:25.689Z,99640.13
2018-05-09T02:45:31.422Z,99645.48
2018-05-09T02:46:37.154Z,99640.70
2018-05-09T02:47:42.915Z,99642.56
2018-05-09T02:48:48.685Z,99641.37
2018-05-09T02:49:54.490Z,99637.52
2018-05-09T02:51:01.133Z,99648.20
2018-05-09T02:52:06.871Z,99644.23
2018-05-09T02:53:12.626Z,99649.64
2018-05-09T02:54:18.384Z,99640.38
2018-05-09T02:55:24.127Z,99647.12
2018-05-09T02:56:29.871Z,99648.51
2018-05-09T02:57:35.619Z,99646.28
2018-05-09T02:58:41.375Z,99648.09
2018-05-09T02:59:47.156Z,99638.92
2018-05-09T03:00:52.898Z,99643.37
2018-05-09T03:01:58.414Z,99639.39
2018-05-09T03:03:04.919Z,99641.27
2018-05-09T03:04:10.677Z,99649.69
2018-05-09T03:05:16.218Z,99648.30
2018-05-09T03:06:21.972Z,99647.94
2018-05-09T03:07:27.718Z,99655.88
2018-05-09T03:08:33.255Z,99651.91
2018-05-09T03:09:39.773Z,99647.52
2018-05-09T03:10:45.533Z,99648.48
2018-05-09T03:11:51.273Z,99653.72
2018-05-09T03:12:57.016Z,99651.91
2018-05-09T03:14:02.760Z,99644.94
2018-05-09T03:15:08.499Z,99646.41
2018-05-09T03:16:14.270Z,99644.58
2018-05-09T03:17:20.778Z,99642.86
2018-05-09T03:18:26.526Z,99641.03
2018-05-09T03:19:32.271Z,99640.22
2018-05-09T03:20:38.024Z,99639.28
2018-05-09T03:21:43.802Z,99639.64
2018-05-09T03:22:49.552Z,99643.55
2018-05-09T03:23:55.389Z,99640.00
2018-05-09T03:25:01.913Z,99632.55
2018-05-09T03:26:08.419Z,99632.55
2018-05-09T03:27:14.193Z,99644.25
2018-05-09T03:28:19.952Z,99645.27
2018-05-09T03:29:25.698Z,99651.59
2018-05-09T03:30:31.449Z,99653.22
2018-05-09T03:31:37.412Z,99649.31
2018-05-09T03:32:43.954Z,99648.68
2018-05-09T03:33:49.695Z,99650.77
2018-05-09T03:34:55.463Z,99648.00
2018-05-09T03:36:01.218Z,99636.30
2018-05-09T03:37:06.979Z,99641.59
2018-05-09T03:38:12.763Z,99645.50
2018-05-09T03:39:18.520Z,99636.91
2018-05-09T03:40:25.041Z,99639.55
2018-05-09T03:41:30.795Z,99636.06
2018-05-09T03:42:36.555Z,99643.94
2018-05-09T03:43:43.100Z,99643.82
2018-05-09T03:44:49.615Z,99640.88
2018-05-09T03:45:55.439Z,99641.78
2018-05-09T03:47:01.962Z,99645.00
2018-05-09T03:48:07.702Z,99641.94
2018-05-09T03:49:13.585Z,99647.64
2018-05-09T03:50:20.092Z,99646.86
2018-05-09T03:51:25.847Z,99645.39
2018-05-09T03:52:31.623Z,99639.61
2018-05-09T03:53:37.895Z,99643.10
2018-05-09T03:54:43.670Z,99639.02
2018-05-09T03:55:49.457Z,99647.31
2018-05-09T03:56:55.966Z,99648.27
2018-05-09T03:58:01.723Z,99642.73
2018-05-09T03:59:07.457Z,99643.58
2018-05-09T04:00:13.231Z,99644.64
2018-05-09T04:01:19.765Z,99642.26
2018-05-09T04:02:44.267Z,99637.33
2018-05-09T04:04:06.845Z,99632.40
2018-05-09T04:05:29.475Z,99635.34
2018-05-09T04:06:52.239Z,99632.91
2018-05-09T04:08:14.871Z,99629.17
2018-05-09T04:09:34.801Z,99632.45
2018-05-09T04:10:40.721Z,99640.33
2018-05-09T04:11:46.464Z,99637.38
2018-05-09T04:12:52.204Z,99636.90
2018-05-09T04:13:57.954Z,99638.02
2018-05-09T04:15:03.480Z,99637.25
2018-05-09T04:16:09.252Z,99645.08
2018-05-09T04:17:15.789Z,99645.77
2018-05-09T04:18:21.539Z,99642.70
2018-05-09T04:19:28.055Z,99643.53
2018-05-09T04:20:33.844Z,99638.03
2018-05-09T04:21:39.780Z,99641.66
2018-05-09T04:22:46.300Z,99636.02
2018-05-09T04:23:52.047Z,99632.82
2018-05-09T04:24:57.832Z,99625.56
2018-05-09T04:26:04.773Z,99631.64
2018-05-09T04:27:11.439Z,99628.45
2018-05-09T04:28:17.248Z,99628.23
2018-05-09T04:29:22.999Z,99630.64
2018-05-09T04:30:28.751Z,99639.90
2018-05-09T04:31:34.523Z,99632.86
2018-05-09T04:32:41.083Z,99634.25
2018-05-09T04:33:47.603Z,99632.98
2018-05-09T04:34:53.373Z,99626.91
2018-05-09T04:35:59.136Z,99626.91
2018-05-09T04:37:05.663Z,99629.92
2018-05-09T04:38:12.219Z,99621.98
2018-05-09T04:39:18.329Z,99622.27
2018-05-09T04:40:24.094Z,99624.94
2018-05-09T04:41:29.859Z,99625.50
2018-05-09T04:42:36.787Z,99629.06
2018-05-09T04:43:42.589Z,99632.98
2018-05-09T04:44:49.339Z,99631.97
2018-05-09T04:45:55.097Z,99636.02
2018-05-09T04:47:01.627Z,99639.09
2018-05-09T04:48:07.376Z,99636.82
2018-05-09T04:49:13.201Z,99636.29
2018-05-09T04:50:19.135Z,99631.05
2018-05-09T04:51:24.898Z,99634.97
2018-05-09T04:52:30.659Z,99636.44
2018-05-09T04:53:36.415Z,99636.38
2018-05-09T04:54:43.009Z,99632.76
2018-05-09T04:55:48.763Z,99633.44
2018-05-09T04:56:54.527Z,99635.90
2018-05-09T04:58:00.272Z,99637.91
2018-05-09T04:59:06.035Z,99640.62
2018-05-09T05:00:12.584Z,99651.09
2018-05-09T05:01:18.339Z,99649.28
2018-05-09T05:02:24.877Z,99649.52
2018-05-09T05:03:30.640Z,99650.13
2018-05-09T05:04:37.171Z,99645.61
2018-05-09T05:05:42.951Z,99643.94
2018-05-09T05:06:49.482Z,99649.37
2018-05-09T05:07:55.259Z,99643.87
2018-05-09T05:09:01.772Z,99642.42
2018-05-09T05:10:07.523Z,99643.95
2018-05-09T05:11:13.303Z,99639.91
2018-05-09T05:12:19.070Z,99641.17
2018-05-09T05:13:24.839Z,99634.05
2018-05-09T05:14:30.596Z,99641.72
2018-05-09T05:15:36.369Z,99641.91
2018-05-09T05:16:42.157Z,99642.44
2018-05-09T05:17:48.158Z,99645.92
2018-05-09T05:18:54.708Z,99646.92
2018-05-09T05:20:00.443Z,99649.42
2018-05-09T05:21:06.191Z,99649.94
2018-05-09T05:22:12.737Z,99654.23
2018-05-09T05:23:18.495Z,99649.03
2018-05-09T05:24:25.377Z,99640.66
2018-05-09T05:25:31.222Z,99641.27
2018-05-09T05:26:37.067Z,99641.56
2018-05-09T05:27:42.851Z,99650.42
2018-05-09T05:28:48.606Z,99641.70
2018-05-09T05:29:54.360Z,99637.16
2018-05-09T05:31:00.128Z,99646.38
2018-05-09T05:32:06.999Z,99643.31
2018-05-09T05:33:12.790Z,99643.92
2018-05-09T05:34:18.539Z,99650.55
2018-05-09T05:35:24.295Z,99644.98
2018-05-09T05:36:30.811Z,99637.63
2018-05-09T05:37:36.572Z,99642.17
2018-05-09T05:38:42.370Z,99636.02
2018-05-09T05:39:48.892Z,99634.30
2018-05-09T05:40:54.639Z,99636.52
2018-05-09T05:42:01.163Z,99640.27
2018-05-09T05:43:06.956Z,99642.30
2018-05-09T05:44:13.532Z,99640.20
2018-05-09T05:45:19.503Z,99637.88
2018-05-09T05:46:25.486Z,99638.36
2018-05-09T05:47:31.580Z,99641.00
2018-05-09T05:48:37.327Z,99650.91
2018-05-09T05:49:43.579Z,99645.33
2018-05-09T05:50:49.485Z,99646.52
2018-05-09T05:51:55.466Z,99652.78
2018-05-09T05:53:01.261Z,99646.14
2018-05-09T05:54:07.357Z,99653.34
2018-05-09T05:55:13.154Z,99655.36
2018-05-09T05:56:20.439Z,99648.22
2018-05-09T05:57:26.195Z,99654.14
2018-05-09T05:58:32.730Z,99649.53
2018-05-09T05:59:38.483Z,99646.83
2018-05-09T06:00:44.320Z,99637.59
2018-05-09T06:01:50.068Z,99629.70
2018-05-09T06:02:55.831Z,99639.08
2018-05-09T06:04:02.369Z,99644.09
2018-05-09T06:05:07.792Z,99647.14
2018-05-09T06:06:13.584Z,99649.91
2018-05-09T06:07:19.334Z,99652.71
2018-05-09T06:08:25.093Z,99653.14
2018-05-09T06:09:30.858Z,99654.42
2018-05-09T06:10:36.618Z,99649.59
2018-05-09T06:11:42.389Z,99654.81
2018-05-09T06:12:47.903Z,99649.95
2018-05-09T06:13:54.431Z,99658.27
2018-05-09T06:15:00.178Z,99650.95
2018-05-09T06:16:05.709Z,99654.62
2018-05-09T06:17:11.509Z,99655.56
2018-05-09T06:18:18.222Z,99651.23
2018-05-09T06:19:23.977Z,99646.77
2018-05-09T06:20:29.737Z,99641.80
2018-05-09T06:21:36.268Z,99641.88
2018-05-09T06:22:42.052Z,99640.20
2018-05-09T06:23:47.853Z,99637.59
2018-05-09T06:24:53.771Z,99635.57
2018-05-09T06:25:59.511Z,99644.59
2018-05-09T06:27:05.329Z,99644.95
2018-05-09T06:28:11.100Z,99654.73
2018-05-09T06:29:16.849Z,99657.41
2018-05-09T06:30:22.619Z,99652.69
2018-05-09T06:31:29.137Z,99647.45
2018-05-09T06:32:34.875Z,99648.61
2018-05-09T06:33:40.653Z,99646.59
2018-05-09T06:34:46.388Z,99647.34
2018-05-09T06:35:52.143Z,99652.32
2018-05-09T06:36:57.891Z,99657.45
2018-05-09T06:38:04.399Z,99649.18
2018-05-09T06:39:09.952Z,99657.30
2018-05-09T06:40:15.692Z,99646.59
2018-05-09T06:41:21.431Z,99652.94
2018-05-09T06:42:27.179Z,99651.52
2018-05-09T06:43:32.943Z,99648.95
2018-05-09T06:44:40.222Z,99650.27
2018-05-09T06:45:45.974Z,99647.27
2018-05-09T06:46:51.706Z,99644.86
2018-05-09T06:47:57.455Z,99650.45
2018-05-09T06:49:04.013Z,99649.64
2018-05-09T06:50:09.781Z,99649.50
2018-05-09T06:51:15.544Z,99658.46
2018-05-09T06:52:21.299Z,99655.63
2018-05-09T06:53:27.052Z,99654.33
2018-05-09T06:54:32.809Z,99655.08
2018-05-09T06:55:38.583Z,99652.66
2018-05-09T06:56:44.368Z,99651.77
2018-05-09T06:57:50.115Z,99646.91
2018-05-09T06:58:55.881Z,99654.33
2018-05-09T07:00:01.852Z,99654.66
2018-05-09T07:01:08.355Z,99657.10
2018-05-09T07:02:14.098Z,99657.39
2018-05-09T07:03:19.615Z,99660.11
2018-05-09T07:04:25.371Z,99663.34
2018-05-09T07:05:31.115Z,99652.55
2018-05-09T07:06:37.042Z,99658.63
2018-05-09T07:07:42.861Z,99649.80
2018-05-09T07:08:49.369Z,99653.25
2018-05-09T07:09:55.111Z,99645.02
2018-05-09T07:11:00.855Z,99653.06
2018-05-09T07:12:06.682Z,99647.50
2018-05-09T07:13:13.346Z,99645.00
2018-05-09T07:14:19.102Z,99651.63
2018-05-09T07:15:24.847Z,99642.88
2018-05-09T07:16:30.596Z,99649.91
2018-05-09T07:17:36.375Z,99647.98
2018-05-09T07:18:42.119Z,99643.44
2018-05-09T07:19:47.860Z,99637.31
2018-05-09T07:20:53.607Z,99638.89
2018-05-09T07:22:00.116Z,99638.14
2018-05-09T07:23:05.937Z,99635.33
2018-05-09T07:24:12.592Z,99635.84
2018-05-09T07:25:18.677Z,99635.09
2018-05-09T07:26:25.928Z,99637.37
2018-05-09T07:27:31.893Z,99647.92
2018-05-09T07:28:37.427Z,99637.36
2018-05-09T07:29:43.171Z,99638.83
2018-05-09T07:30:48.911Z,99637.53
2018-05-09T07:31:54.667Z,99630.50
2018-05-09T07:33:01.178Z,99633.09
2018-05-09T07:34:06.952Z,99635.66
2018-05-09T07:35:12.701Z,99635.42
2018-05-09T07:36:18.454Z,99636.88
2018-05-09T07:37:24.200Z,99635.11
2018-05-09T07:38:29.946Z,99635.82
2018-05-09T07:39:36.482Z,99637.08
2018-05-09T07:40:42.356Z,99640.76
2018-05-09T07:41:48.864Z,99644.24
2018-05-09T07:42:54.762Z,99642.27
2018-05-09T07:44:00.695Z,99646.02
2018-05-09T07:45:07.244Z,99650.03
2018-05-09T07:46:13.001Z,99642.27
2018-05-09T07:47:19.508Z,99645.28
2018-05-09T07:48:26.024Z,99647.25
2018-05-09T07:49:32.545Z,99644.88
2018-05-09T07:50:38.322Z,99649.38
2018-05-09T07:51:44.848Z,99653.91
2018-05-09T07:52:50.603Z,99657.63
2018-05-09T07:53:57.864Z,99661.19
2018-05-09T07:55:03.374Z,99660.03
2018-05-09T07:56:09.147Z,99656.13
2018-05-09T07:57:14.918Z,99655.46
2018-05-09T07:58:21.431Z,99658.31
2018-05-09T07:59:27.187Z,99665.27
2018-05-09T08:00:32.925Z,99665.81
2018-05-09T08:01:38.473Z,99665.78
2018-05-09T08:02:43.955Z,99664.70
2018-05-09T08:03:49.706Z,99664.22
2018-05-09T08:04:54.631Z,99660.16
2018-05-09T08:06:00.171Z,99653.91
2018-05-09T08:07:05.830Z,99660.16
2018-05-09T08:08:12.092Z,99653.84
2018-05-09T08:09:18.335Z,99654.12
2018-05-09T08:10:24.589Z,99654.52
2018-05-09T08:11:30.846Z,99657.02
2018-05-09T08:12:37.154Z,99658.79
2018-05-09T08:13:42.864Z,99655.05
2018-05-09T08:14:48.343Z,99653.52
2018-05-09T08:15:53.820Z,99653.80
2018-05-09T08:16:59.082Z,99660.03
2018-05-09T08:18:04.578Z,99655.09
2018-05-09T08:19:10.828Z,99661.62
2018-05-09T08:20:17.073Z,99653.98
2018-05-09T08:21:23.335Z,99655.84
2018-05-09T08:22:29.095Z,99656.28
2018-05-09T08:23:34.863Z,99656.55
2018-05-09T08:24:41.384Z,99653.94
2018-05-09T08:25:47.127Z,99655.95
2018-05-09T08:26:52.882Z,99660.69
2018-05-09T08:27:58.453Z,99654.34
2018-05-09T08:29:04.990Z,99655.59
2018-05-09T08:30:11.311Z,99654.38
2018-05-09T08:31:17.066Z,99652.30
2018-05-09T08:32:23.599Z,99659.34
2018-05-09T08:33:29.089Z,99652.73
2018-05-09T08:34:34.606Z,99662.13
2018-05-09T08:35:40.105Z,99651.09
2018-05-09T08:36:45.892Z,99663.00
2018-05-09T08:37:51.813Z,99658.06
2018-05-09T08:38:58.092Z,99653.89
2018-05-09T08:40:03.857Z,99666.44
2018-05-09T08:41:09.344Z,99658.58
2018-05-09T08:42:16.111Z,99659.25
2018-05-09T08:43:21.903Z,99657.88
2018-05-09T08:44:27.827Z,99657.11
2018-05-09T08:45:34.363Z,99659.47
2018-05-09T08:46:40.891Z,99654.59
2018-05-09T08:47:46.656Z,99655.91
2018-05-09T08:48:52.424Z,99657.98
2018-05-09T08:49:57.911Z,99650.91
2018-05-09T08:51:03.690Z,99650.92
2018-05-09T08:52:09.465Z,99650.23
2018-05-09T08:53:15.974Z,99649.02
2018-05-09T08:54:21.728Z,99648.39
2018-05-09T08:55:27.483Z,99646.77
2018-05-09T08:56:33.355Z,99649.94
2018-05-09T08:57:39.101Z,99642.91
2018-05-09T08:58:44.867Z,99648.56
2018-05-09T08:59:50.621Z,99642.59
2018-05-09T09:00:56.377Z,99641.64
2018-05-09T09:02:02.149Z,99647.08
2018-05-09T09:03:08.944Z,99642.16
2018-05-09T09:04:14.925Z,99643.52
2018-05-09T09:05:20.864Z,99640.67
2018-05-09T09:06:26.639Z,99630.30
2018-05-09T09:07:32.618Z,99639.83
2018-05-09T09:08:38.366Z,99635.75
2018-05-09T09:09:44.123Z,99644.19
2018-05-09T09:10:49.929Z,99641.50
2018-05-09T09:11:55.831Z,99639.71
2018-05-09T09:13:01.607Z,99645.53
2018-05-09T09:14:07.792Z,99634.87
2018-05-09T09:15:13.586Z,99639.53
2018-05-09T09:16:19.515Z,99639.36
2018-05-09T09:17:25.036Z,99639.94
2018-05-09T09:18:30.867Z,99630.97
2018-05-09T09:19:36.560Z,99630.38
2018-05-09T09:20:43.152Z,99628.37
2018-05-09T09:21:49.819Z,99632.00
2018-05-09T09:22:55.578Z,99631.30
2018-05-09T09:24:01.350Z,99627.80
2018-05-09T09:25:07.104Z,99620.70
2018-05-09T09:26:12.868Z,99623.52
2018-05-09T09:27:18.623Z,99617.00
2018-05-09T09:28:24.383Z,99615.33
2018-05-09T09:29:29.838Z,99615.31
2018-05-09T09:30:35.252Z,99610.69
2018-05-09T09:31:40.999Z,99607.53
2018-05-09T09:32:46.759Z,99616.45
2018-05-09T09:33:52.250Z,99617.81
2018-05-09T09:34:57.756Z,99614.54
2018-05-09T09:36:03.233Z,99612.47
2018-05-09T09:37:08.979Z,99611.40
2018-05-09T09:38:14.481Z,99605.75
2018-05-09T09:39:20.997Z,99614.03
2018-05-09T09:40:26.786Z,99605.20
2018-05-09T09:41:32.319Z,99604.81
2018-05-09T09:42:37.976Z,99605.74
2018-05-09T09:43:43.731Z,99603.02
2018-05-09T09:44:49.212Z,99599.30
2018-05-09T09:45:54.703Z,99605.36
2018-05-09T09:47:00.177Z,99598.84
2018-05-09T09:48:05.657Z,99605.32
2018-05-09T09:49:11.132Z,99602.19
2018-05-09T09:50:16.611Z,99600.44
2018-05-09T09:51:22.138Z,99597.14
2018-05-09T09:52:27.628Z,99593.03
2018-05-09T09:53:33.868Z,99600.02
2018-05-09T09:54:39.358Z,99605.23
2018-05-09T09:55:44.878Z,99601.94
2018-05-09T09:56:50.378Z,99599.23
2018-05-09T09:57:55.870Z,99604.38
2018-05-09T09:59:02.375Z,99599.10
2018-05-09T10:00:07.855Z,99601.83
2018-05-09T10:01:14.383Z,99605.46
2018-05-09T10:02:20.667Z,99602.41
2018-05-09T10:03:27.183Z,99601.31
2018-05-09T10:04:32.935Z,99613.02
2018-05-09T10:05:38.687Z,99609.90
2018-05-09T10:06:44.224Z,99600.00
2018-05-09T10:07:49.990Z,99606.53
2018-05-09T10:08:56.509Z,99606.88
2018-05-09T10:10:02.300Z,99598.15
2018-05-09T10:11:08.812Z,99602.87
2018-05-09T10:12:14.562Z,99603.25
2018-05-09T10:13:20.334Z,99597.59
2018-05-09T10:14:26.647Z,99598.20
2018-05-09T10:15:32.399Z,99598.80
2018-05-09T10:16:38.160Z,99595.11
2018-05-09T10:17:43.920Z,99596.69
2018-05-09T10:18:50.467Z,99594.45
2018-05-09T10:19:56.220Z,99588.91
2018-05-09T10:21:02.746Z,99593.97
2018-05-09T10:22:08.490Z,99592.27
2018-05-09T10:23:14.363Z,99592.70
2018-05-09T10:24:21.071Z,99589.69
2018-05-09T10:25:26.827Z,99598.26
2018-05-09T10:26:32.789Z,99588.52
2018-05-09T10:27:38.535Z,99592.55
2018-05-09T10:28:44.283Z,99592.50
2018-05-09T10:29:50.057Z,99592.31
2018-05-09T10:30:55.896Z,99583.09
2018-05-09T10:32:01.455Z,99588.22
2018-05-09T10:33:07.216Z,99586.80
2018-05-09T10:34:12.764Z,99586.25
2018-05-09T10:35:18.536Z,99583.39
2018-05-09T10:36:25.059Z,99587.45
2018-05-09T10:37:30.812Z,99584.34
2018-05-09T10:38:36.567Z,99588.85
2018-05-09T10:39:42.344Z,99587.88
2018-05-09T10:40:48.122Z,99582.16
2018-05-09T10:41:53.871Z,99578.02
2018-05-09T10:42:59.423Z,99577.36
2018-05-09T10:44:05.176Z,99581.07
2018-05-09T10:45:11.692Z,99583.42
2018-05-09T10:46:17.473Z,99581.63
2018-05-09T10:47:23.219Z,99574.87
2018-05-09T10:48:29.511Z,99568.28
2018-05-09T10:49:35.280Z,99567.72
2018-05-09T10:50:41.025Z,99577.91
2018-05-09T10:51:47.006Z,99572.94
2018-05-09T10:52:52.746Z,99568.98
2018-05-09T10:53:59.263Z,99566.30
2018-05-09T10:55:05.022Z,99572.64
2018-05-09T10:56:10.763Z,99568.50
2018-05-09T10:57:16.613Z,99563.82
2018-05-09T10:58:22.511Z,99568.20
2018-05-09T10:59:29.032Z,99566.22
2018-05-09T11:00:34.786Z,99574.80
2018-05-09T11:01:41.301Z,99572.10
2018-05-09T11:02:47.075Z,99564.41
2018-05-09T11:03:52.848Z,99563.64
2018-05-09T11:04:58.603Z,99569.38
2018-05-09T11:06:04.352Z,99568.98
2018-05-09T11:07:10.094Z,99562.16
2018-05-09T11:08:15.885Z,99572.80
2018-05-09T11:09:21.647Z,99568.59
2018-05-09T11:10:27.220Z,99566.85
2018-05-09T11:11:33.165Z,99565.89
2018-05-09T11:12:38.955Z,99567.59
2018-05-09T11:13:45.487Z,99577.16
2018-05-09T11:14:52.747Z,99565.16
2018-05-09T11:15:58.266Z,99568.45
2018-05-09T11:17:04.027Z,99564.96
2018-05-09T11:18:09.783Z,99577.67
2018-05-09T11:19:16.031Z,99569.81
2018-05-09T11:20:22.033Z,99566.65
2018-05-09T11:21:27.779Z,99572.08
2018-05-09T11:22:33.621Z,99568.13
2018-05-09T11:23:39.367Z,99569.09
2018-05-09T11:24:45.210Z,99562.59
2018-05-09T11:25:52.615Z,99562.12
2018-05-09T11:26:59.130Z,99564.00
2018-05-09T11:28:05.640Z,99564.59
2018-05-09T11:29:11.195Z,99557.17
2018-05-09T11:30:18.479Z,99554.50
2018-05-09T11:31:24.224Z,99558.31
2018-05-09T11:32:29.966Z,99549.38
2018-05-09T11:33:35.716Z,99556.12
2018-05-09T11:34:42.237Z,99545.88
2018-05-09T11:35:48.025Z,99566.20
2018-05-09T11:36:54.535Z,99549.37
2018-05-09T11:38:00.304Z,99542.41
2018-05-09T11:39:05.846Z,99540.45
2018-05-09T11:40:11.597Z,99538.41
2018-05-09T11:41:18.143Z,99534.63
2018-05-09T11:42:23.887Z,99535.28
2018-05-09T11:43:29.718Z,99537.78
2018-05-09T11:44:35.480Z,99538.41
2018-05-09T11:45:41.421Z,99537.03
2018-05-09T11:46:47.975Z,99536.45
2018-05-09T11:47:53.724Z,99528.31
2018-05-09T11:48:59.475Z,99530.97
2018-05-09T11:50:06.195Z,99529.48
2018-05-09T11:51:11.942Z,99529.41
2018-05-09T11:52:17.720Z,99517.58
2018-05-09T11:53:24.447Z,99529.91
2018-05-09T11:54:29.972Z,99525.23
2018-05-09T11:55:35.723Z,99529.47
2018-05-09T11:56:41.479Z,99521.50
2018-05-09T11:57:47.253Z,99520.07
2018-05-09T11:58:53.767Z,99523.66
2018-05-09T11:59:59.524Z,99516.71
2018-05-09T12:01:05.271Z,99515.76
2018-05-09T12:02:11.128Z,99517.31
2018-05-09T12:03:17.784Z,99517.53
2018-05-09T12:04:23.963Z,99511.86
2018-05-09T12:05:30.473Z,99515.73
2018-05-09T12:06:36.227Z,99511.80
2018-05-09T12:07:41.997Z,99502.18
2018-05-09T12:08:48.539Z,99505.20
2018-05-09T12:09:54.357Z,99507.61
2018-05-09T12:11:00.100Z,99507.16
2018-05-09T12:12:05.856Z,99493.50
2018-05-09T12:13:11.600Z,99503.24
2018-05-09T12:14:17.374Z,99503.22
2018-05-09T12:15:23.126Z,99504.16
2018-05-09T12:16:28.876Z,99502.72
2018-05-09T12:17:34.624Z,99490.89
2018-05-09T12:18:40.395Z,99496.17
2018-05-09T12:19:46.266Z,99487.55
2018-05-09T12:20:52.844Z,99490.55
2018-05-09T12:21:59.357Z,99487.41
2018-05-09T12:23:05.100Z,99486.38
2018-05-09T12:24:10.854Z,99485.94
2018-05-09T12:25:16.632Z,99487.91
2018-05-09T12:26:22.387Z,99486.22
2018-05-09T12:27:28.139Z,99492.89
2018-05-09T12:28:33.901Z,99487.90
2018-05-09T12:29:39.653Z,99486.12
2018-05-09T12:30:45.437Z,99484.75
2018-05-09T12:31:51.941Z,99474.77
2018-05-09T12:32:57.697Z,99479.83
2018-05-09T12:34:03.440Z,99482.53
2018-05-09T12:35:09.201Z,99480.47
2018-05-09T12:36:15.757Z,99475.87
2018-05-09T12:37:23.020Z,99479.89
2018-05-09T12:38:28.579Z,99479.71
2018-05-09T12:39:35.102Z,99476.88
2018-05-09T12:40:40.847Z,99470.50
2018-05-09T12:41:46.616Z,99472.09
2018-05-09T12:42:52.362Z,99472.11
2018-05-09T12:43:58.879Z,99468.61
2018-05-09T12:45:04.626Z,99473.34
2018-05-09T12:46:10.394Z,99461.26
2018-05-09T12:47:16.184Z,99468.47
2018-05-09T12:48:21.943Z,99462.48
2018-05-09T12:49:27.708Z,99460.20
2018-05-09T12:50:33.439Z,99471.69
2018-05-09T12:51:39.202Z,99471.69
2018-05-09T12:52:44.984Z,99463.75
2018-05-09T12:53:50.750Z,99457.38
2018-05-09T12:54:56.554Z,99459.72
2018-05-09T12:56:03.065Z,99460.05